首页
METAR-TAF:

METAR-TAF

机场 :

奧爾比亞, 意大利

纬度: 40-54N, 经度: 009-31E, 海拔: 11米

当前天气观测

该预报发布于33分钟前的09:20 UTC
风速8节,风向东转东北
温度 23°C
湿度 44%
气压 1017 hPa
能见度10公里或以上
少量云层高于3000英尺

METAR: LIEO 010920Z 06008KT 9999 FEW030 23/10 Q1017

时间: 11:53 (09:53 UTC)

预报

该预报发布于4小时和22分钟前的05:31 UTC
预报有效从01日的 06点(UTC)到 02日的 06点(UTC)
风速5节,风向多变
能见度10公里或以上
1500米以下无云,无积雨云
成为
从 01日的 08点(UTC)到 01日的 10点(UTC)
风速12节,风向北转东北
成为
从 01日的 16点(UTC)到 01日的 18点(UTC)
风速5节,风向多变

TAF: LIEO 010531Z 0106/0206 VRB05KT CAVOK BECMG 0108/0110 02012KT BECMG 0116/0118 VRB05KT

超过4000个机场的气象观测和天气预报(METAR&TAF报告)。

可查询的气象台以黄色和红色小点在地图上表示。

将鼠标移到小点上方,可查看气象台名称。

然后点击查看天气观测和预报。

如需切换地图:点击带黑十字的绿色按钮放大地图;点击带横线的绿色按钮缩小地图;或者点击绿色箭头查看邻近地区的地图。


METAR-TAF: